Terminal Aerodrome Forecast
Issued by NWS

Home | Current Version | Previous Version | Graphics & Text | Print | Product List | Glossary On
Versions: 1 2 3 4 5 6 7 8 9 10 11 12 13 14 15 16
000
FTUS43 KOAX 301720
TAFCDR
TAF
KCDR 301720Z 3018/3118 21012KT P6SM FEW250
     FM302000 21015G22KT P6SM SCT200
     FM310000 19012KT P6SM FEW080 BKN150
     FM310300 19013G25KT P6SM BKN150
     FM310800 20010KT P6SM BKN150=

USA.gov is the U.S. government's official web portal to all federal, state and local government web resources and services.